sensor_id;sensor_type;location;lat;lon;timestamp;P1;durP1;ratioP1;P2;durP2;ratioP2
6414;SDS011;3240;48.790;9.210;2023-04-12T00:01:33;10.20;;;2.80;;
6414;SDS011;3240;48.790;9.210;2023-04-12T00:04:02;5.50;;;2.03;;
6414;SDS011;3240;48.790;9.210;2023-04-12T00:06:30;5.53;;;1.80;;
6414;SDS011;3240;48.790;9.210;2023-04-12T00:09:00;3.60;;;1.90;;
6414;SDS011;3240;48.790;9.210;2023-04-12T00:11:29;5.03;;;1.80;;
6414;SDS011;3240;48.790;9.210;2023-04-12T00:13:57;7.90;;;1.93;;
6414;SDS011;3240;48.790;9.210;2023-04-12T00:16:25;5.30;;;2.47;;
6414;SDS011;3240;48.790;9.210;2023-04-12T00:18:53;4.43;;;2.07;;
6414;SDS011;3240;48.790;9.210;2023-04-12T00:21:22;7.00;;;1.93;;
6414;SDS011;3240;48.790;9.210;2023-04-12T00:23:50;4.13;;;2.03;;
6414;SDS011;3240;48.790;9.210;2023-04-12T00:26:18;6.17;;;1.90;;
6414;SDS011;3240;48.790;9.210;2023-04-12T00:28:47;4.00;;;1.60;;
6414;SDS011;3240;48.790;9.210;2023-04-12T00:31:15;4.50;;;1.67;;
6414;SDS011;3240;48.790;9.210;2023-04-12T00:33:43;6.73;;;2.03;;
6414;SDS011;3240;48.790;9.210;2023-04-12T00:36:12;4.03;;;1.70;;
6414;SDS011;3240;48.790;9.210;2023-04-12T00:38:40;5.87;;;1.70;;
6414;SDS011;3240;48.790;9.210;2023-04-12T00:41:08;4.27;;;1.30;;
6414;SDS011;3240;48.790;9.210;2023-04-12T00:43:38;4.33;;;1.80;;
6414;SDS011;3240;48.790;9.210;2023-04-12T00:46:05;5.60;;;1.90;;
6414;SDS011;3240;48.790;9.210;2023-04-12T00:48:34;2.20;;;1.47;;
6414;SDS011;3240;48.790;9.210;2023-04-12T00:51:02;3.10;;;1.70;;
6414;SDS011;3240;48.790;9.210;2023-04-12T00:53:30;10.93;;;4.47;;
6414;SDS011;3240;48.790;9.210;2023-04-12T00:55:58;6.07;;;2.13;;
6414;SDS011;3240;48.790;9.210;2023-04-12T00:58:26;4.20;;;1.87;;
6414;SDS011;3240;48.790;9.210;2023-04-12T01:00:54;6.20;;;1.90;;
6414;SDS011;3240;48.790;9.210;2023-04-12T01:03:22;5.50;;;2.03;;
6414;SDS011;3240;48.790;9.210;2023-04-12T01:06:12;6.20;;;2.10;;
6414;SDS011;3240;48.790;9.210;2023-04-12T01:11:31;6.83;;;2.00;;
6414;SDS011;3240;48.790;9.210;2023-04-12T01:14:04;5.27;;;2.10;;
6414;SDS011;3240;48.790;9.210;2023-04-12T01:16:41;4.07;;;1.57;;
6414;SDS011;3240;48.790;9.210;2023-04-12T01:19:14;6.43;;;2.00;;
6414;SDS011;3240;48.790;9.210;2023-04-12T01:21:40;4.70;;;2.00;;
6414;SDS011;3240;48.790;9.210;2023-04-12T01:24:13;4.53;;;1.73;;
6414;SDS011;3240;48.790;9.210;2023-04-12T01:26:40;8.50;;;1.80;;
6414;SDS011;3240;48.790;9.210;2023-04-12T01:29:08;8.40;;;2.23;;
6414;SDS011;3240;48.790;9.210;2023-04-12T01:31:35;4.80;;;1.73;;
6414;SDS011;3240;48.790;9.210;2023-04-12T01:34:03;3.43;;;1.93;;
6414;SDS011;3240;48.790;9.210;2023-04-12T01:36:31;5.87;;;1.87;;
6414;SDS011;3240;48.790;9.210;2023-04-12T01:38:59;5.20;;;1.80;;
6414;SDS011;3240;48.790;9.210;2023-04-12T01:41:27;4.30;;;1.97;;
6414;SDS011;3240;48.790;9.210;2023-04-12T01:43:55;3.40;;;1.63;;
6414;SDS011;3240;48.790;9.210;2023-04-12T01:46:23;6.73;;;1.90;;
6414;SDS011;3240;48.790;9.210;2023-04-12T01:48:52;3.00;;;1.60;;
6414;SDS011;3240;48.790;9.210;2023-04-12T01:51:32;5.33;;;1.97;;
6414;SDS011;3240;48.790;9.210;2023-04-12T01:53:58;3.37;;;1.70;;
6414;SDS011;3240;48.790;9.210;2023-04-12T01:56:27;5.40;;;1.90;;
6414;SDS011;3240;48.790;9.210;2023-04-12T01:58:53;5.23;;;2.40;;
6414;SDS011;3240;48.790;9.210;2023-04-12T02:01:21;6.33;;;2.10;;
6414;SDS011;3240;48.790;9.210;2023-04-12T02:03:49;6.33;;;2.00;;
6414;SDS011;3240;48.790;9.210;2023-04-12T02:06:18;5.20;;;2.43;;
6414;SDS011;3240;48.790;9.210;2023-04-12T02:08:45;5.70;;;2.47;;
6414;SDS011;3240;48.790;9.210;2023-04-12T02:11:14;6.33;;;2.20;;
6414;SDS011;3240;48.790;9.210;2023-04-12T02:13:42;7.60;;;2.90;;
6414;SDS011;3240;48.790;9.210;2023-04-12T02:16:10;3.53;;;1.93;;
6414;SDS011;3240;48.790;9.210;2023-04-12T02:18:38;8.00;;;2.40;;
6414;SDS011;3240;48.790;9.210;2023-04-12T02:21:06;7.40;;;2.53;;
6414;SDS011;3240;48.790;9.210;2023-04-12T02:23:34;6.83;;;2.70;;
6414;SDS011;3240;48.790;9.210;2023-04-12T02:26:02;5.20;;;1.90;;
6414;SDS011;3240;48.790;9.210;2023-04-12T02:28:30;6.10;;;2.43;;
6414;SDS011;3240;48.790;9.210;2023-04-12T02:30:58;5.13;;;1.90;;
6414;SDS011;3240;48.790;9.210;2023-04-12T02:33:26;6.03;;;2.47;;
6414;SDS011;3240;48.790;9.210;2023-04-12T02:35:54;5.10;;;2.50;;
6414;SDS011;3240;48.790;9.210;2023-04-12T02:38:22;3.77;;;2.07;;
6414;SDS011;3240;48.790;9.210;2023-04-12T02:40:50;7.87;;;2.40;;
6414;SDS011;3240;48.790;9.210;2023-04-12T02:43:18;5.33;;;1.93;;
6414;SDS011;3240;48.790;9.210;2023-04-12T02:45:46;7.40;;;2.70;;
6414;SDS011;3240;48.790;9.210;2023-04-12T02:48:14;5.68;;;2.15;;
6414;SDS011;3240;48.790;9.210;2023-04-12T02:50:42;7.07;;;2.20;;
6414;SDS011;3240;48.790;9.210;2023-04-12T02:53:10;6.30;;;2.43;;
6414;SDS011;3240;48.790;9.210;2023-04-12T02:55:38;4.43;;;2.50;;
6414;SDS011;3240;48.790;9.210;2023-04-12T02:58:06;3.97;;;2.57;;
6414;SDS011;3240;48.790;9.210;2023-04-12T03:00:34;5.07;;;3.17;;
6414;SDS011;3240;48.790;9.210;2023-04-12T03:03:02;5.10;;;2.63;;
6414;SDS011;3240;48.790;9.210;2023-04-12T03:05:30;8.40;;;2.73;;
6414;SDS011;3240;48.790;9.210;2023-04-12T03:07:58;7.30;;;3.10;;
6414;SDS011;3240;48.790;9.210;2023-04-12T03:10:26;7.60;;;2.77;;
6414;SDS011;3240;48.790;9.210;2023-04-12T03:12:54;6.50;;;2.77;;
6414;SDS011;3240;48.790;9.210;2023-04-12T03:15:23;4.30;;;2.73;;
6414;SDS011;3240;48.790;9.210;2023-04-12T03:17:51;5.70;;;3.00;;
6414;SDS011;3240;48.790;9.210;2023-04-12T03:20:19;6.53;;;3.17;;
6414;SDS011;3240;48.790;9.210;2023-04-12T03:22:47;7.73;;;3.37;;
6414;SDS011;3240;48.790;9.210;2023-04-12T03:25:15;5.80;;;3.30;;
6414;SDS011;3240;48.790;9.210;2023-04-12T03:27:43;6.43;;;3.30;;
6414;SDS011;3240;48.790;9.210;2023-04-12T03:30:11;9.10;;;3.90;;
6414;SDS011;3240;48.790;9.210;2023-04-12T03:32:40;7.47;;;3.00;;
6414;SDS011;3240;48.790;9.210;2023-04-12T03:35:07;7.40;;;3.30;;
6414;SDS011;3240;48.790;9.210;2023-04-12T03:37:35;6.90;;;3.17;;
6414;SDS011;3240;48.790;9.210;2023-04-12T03:40:04;8.47;;;3.10;;
6414;SDS011;3240;48.790;9.210;2023-04-12T03:42:32;7.93;;;3.30;;
6414;SDS011;3240;48.790;9.210;2023-04-12T03:45:00;8.90;;;4.60;;
6414;SDS011;3240;48.790;9.210;2023-04-12T03:47:28;11.73;;;4.00;;
6414;SDS011;3240;48.790;9.210;2023-04-12T03:50:01;5.53;;;3.63;;
6414;SDS011;3240;48.790;9.210;2023-04-12T03:52:24;5.27;;;3.60;;
6414;SDS011;3240;48.790;9.210;2023-04-12T03:54:52;9.43;;;3.90;;
6414;SDS011;3240;48.790;9.210;2023-04-12T03:57:20;7.47;;;3.50;;
6414;SDS011;3240;48.790;9.210;2023-04-12T03:59:48;6.77;;;3.50;;
6414;SDS011;3240;48.790;9.210;2023-04-12T04:02:16;8.90;;;2.93;;
6414;SDS011;3240;48.790;9.210;2023-04-12T04:04:44;6.70;;;3.73;;
6414;SDS011;3240;48.790;9.210;2023-04-12T04:07:12;9.47;;;3.40;;
6414;SDS011;3240;48.790;9.210;2023-04-12T04:09:40;5.40;;;3.40;;
6414;SDS011;3240;48.790;9.210;2023-04-12T04:12:08;7.27;;;3.63;;
6414;SDS011;3240;48.790;9.210;2023-04-12T04:14:36;6.30;;;3.47;;
6414;SDS011;3240;48.790;9.210;2023-04-12T04:17:04;8.87;;;3.37;;
6414;SDS011;3240;48.790;9.210;2023-04-12T04:19:32;7.23;;;3.80;;
6414;SDS011;3240;48.790;9.210;2023-04-12T04:22:00;10.87;;;3.70;;
6414;SDS011;3240;48.790;9.210;2023-04-12T04:24:28;6.65;;;4.10;;
6414;SDS011;3240;48.790;9.210;2023-04-12T04:26:56;6.27;;;3.70;;
6414;SDS011;3240;48.790;9.210;2023-04-12T04:29:24;9.43;;;3.50;;
6414;SDS011;3240;48.790;9.210;2023-04-12T04:31:52;6.30;;;2.63;;
6414;SDS011;3240;48.790;9.210;2023-04-12T04:34:21;6.30;;;2.80;;
6414;SDS011;3240;48.790;9.210;2023-04-12T04:36:49;4.60;;;2.63;;
6414;SDS011;3240;48.790;9.210;2023-04-12T04:39:17;5.23;;;2.70;;
6414;SDS011;3240;48.790;9.210;2023-04-12T04:41:45;5.20;;;2.57;;
6414;SDS011;3240;48.790;9.210;2023-04-12T04:44:13;3.30;;;2.57;;
6414;SDS011;3240;48.790;9.210;2023-04-12T04:46:41;6.00;;;2.93;;
6414;SDS011;3240;48.790;9.210;2023-04-12T04:49:09;5.90;;;2.50;;
6414;SDS011;3240;48.790;9.210;2023-04-12T04:51:37;5.97;;;2.60;;
6414;SDS011;3240;48.790;9.210;2023-04-12T04:54:05;3.90;;;2.57;;
6414;SDS011;3240;48.790;9.210;2023-04-12T04:56:33;7.80;;;3.73;;
6414;SDS011;3240;48.790;9.210;2023-04-12T04:59:01;5.73;;;3.23;;
6414;SDS011;3240;48.790;9.210;2023-04-12T05:01:29;3.93;;;2.97;;
6414;SDS011;3240;48.790;9.210;2023-04-12T05:03:57;5.37;;;2.90;;
6414;SDS011;3240;48.790;9.210;2023-04-12T05:06:25;5.97;;;3.33;;
6414;SDS011;3240;48.790;9.210;2023-04-12T05:08:53;4.10;;;2.40;;
6414;SDS011;3240;48.790;9.210;2023-04-12T05:11:21;4.00;;;2.60;;
6414;SDS011;3240;48.790;9.210;2023-04-12T05:13:49;4.23;;;3.40;;
6414;SDS011;3240;48.790;9.210;2023-04-12T05:16:17;6.27;;;3.47;;
6414;SDS011;3240;48.790;9.210;2023-04-12T05:18:45;7.30;;;2.63;;
6414;SDS011;3240;48.790;9.210;2023-04-12T05:21:13;6.53;;;2.63;;
6414;SDS011;3240;48.790;9.210;2023-04-12T05:23:42;8.60;;;2.67;;
6414;SDS011;3240;48.790;9.210;2023-04-12T05:26:09;5.03;;;3.00;;
6414;SDS011;3240;48.790;9.210;2023-04-12T05:28:37;7.30;;;3.07;;
6414;SDS011;3240;48.790;9.210;2023-04-12T05:31:05;3.57;;;2.80;;
6414;SDS011;3240;48.790;9.210;2023-04-12T05:33:33;13.47;;;3.40;;
6414;SDS011;3240;48.790;9.210;2023-04-12T05:36:01;5.67;;;3.00;;
6414;SDS011;3240;48.790;9.210;2023-04-12T05:38:29;8.17;;;3.20;;
6414;SDS011;3240;48.790;9.210;2023-04-12T05:40:57;6.17;;;3.20;;
6414;SDS011;3240;48.790;9.210;2023-04-12T05:43:25;6.73;;;3.13;;
6414;SDS011;3240;48.790;9.210;2023-04-12T05:45:53;5.70;;;3.00;;
6414;SDS011;3240;48.790;9.210;2023-04-12T05:48:21;5.40;;;3.13;;
6414;SDS011;3240;48.790;9.210;2023-04-12T05:50:50;8.47;;;3.00;;
6414;SDS011;3240;48.790;9.210;2023-04-12T05:53:17;6.37;;;3.03;;
6414;SDS011;3240;48.790;9.210;2023-04-12T05:55:46;6.53;;;3.20;;
6414;SDS011;3240;48.790;9.210;2023-04-12T05:58:14;4.57;;;3.10;;
6414;SDS011;3240;48.790;9.210;2023-04-12T06:00:42;6.62;;;3.28;;
6414;SDS011;3240;48.790;9.210;2023-04-12T06:03:10;4.27;;;2.87;;
6414;SDS011;3240;48.790;9.210;2023-04-12T06:05:38;6.33;;;3.43;;
6414;SDS011;3240;48.790;9.210;2023-04-12T06:08:06;7.40;;;2.37;;
6414;SDS011;3240;48.790;9.210;2023-04-12T06:10:34;9.87;;;3.17;;
6414;SDS011;3240;48.790;9.210;2023-04-12T06:13:03;2.30;;;2.10;;
6414;SDS011;3240;48.790;9.210;2023-04-12T06:15:31;5.07;;;2.97;;
6414;SDS011;3240;48.790;9.210;2023-04-12T06:17:59;4.90;;;2.87;;
6414;SDS011;3240;48.790;9.210;2023-04-12T06:20:27;3.77;;;2.47;;
6414;SDS011;3240;48.790;9.210;2023-04-12T06:22:55;5.43;;;2.63;;
6414;SDS011;3240;48.790;9.210;2023-04-12T06:25:23;4.87;;;2.87;;
6414;SDS011;3240;48.790;9.210;2023-04-12T06:27:52;3.80;;;2.97;;
6414;SDS011;3240;48.790;9.210;2023-04-12T06:30:20;5.90;;;2.63;;
6414;SDS011;3240;48.790;9.210;2023-04-12T06:32:48;3.53;;;2.53;;
6414;SDS011;3240;48.790;9.210;2023-04-12T06:35:16;3.70;;;2.70;;
6414;SDS011;3240;48.790;9.210;2023-04-12T06:37:44;3.87;;;2.10;;
6414;SDS011;3240;48.790;9.210;2023-04-12T06:40:12;4.03;;;2.73;;
6414;SDS011;3240;48.790;9.210;2023-04-12T06:42:40;4.13;;;2.50;;
6414;SDS011;3240;48.790;9.210;2023-04-12T06:45:08;3.90;;;2.27;;
6414;SDS011;3240;48.790;9.210;2023-04-12T06:47:36;3.87;;;2.20;;
6414;SDS011;3240;48.790;9.210;2023-04-12T06:50:04;3.73;;;2.80;;
6414;SDS011;3240;48.790;9.210;2023-04-12T06:52:36;3.93;;;2.43;;
6414;SDS011;3240;48.790;9.210;2023-04-12T06:55:04;6.37;;;3.10;;
6414;SDS011;3240;48.790;9.210;2023-04-12T06:57:33;4.90;;;2.40;;
6414;SDS011;3240;48.790;9.210;2023-04-12T07:00:01;124.00;;;12.73;;
6414;SDS011;3240;48.790;9.210;2023-04-12T07:02:29;7.73;;;2.90;;
6414;SDS011;3240;48.790;9.210;2023-04-12T07:04:57;4.93;;;2.10;;
6414;SDS011;3240;48.790;9.210;2023-04-12T07:07:25;4.60;;;2.20;;
6414;SDS011;3240;48.790;9.210;2023-04-12T07:09:53;5.70;;;3.10;;
6414;SDS011;3240;48.790;9.210;2023-04-12T07:12:21;7.60;;;2.03;;
6414;SDS011;3240;48.790;9.210;2023-04-12T07:14:49;5.63;;;2.57;;
6414;SDS011;3240;48.790;9.210;2023-04-12T07:17:17;5.50;;;2.60;;
6414;SDS011;3240;48.790;9.210;2023-04-12T07:19:45;4.60;;;2.10;;
6414;SDS011;3240;48.790;9.210;2023-04-12T07:22:14;2.73;;;2.17;;
6414;SDS011;3240;48.790;9.210;2023-04-12T07:24:42;5.30;;;2.50;;
6414;SDS011;3240;48.790;9.210;2023-04-12T07:27:10;11.73;;;3.20;;
6414;SDS011;3240;48.790;9.210;2023-04-12T07:29:38;10.93;;;3.30;;
6414;SDS011;3240;48.790;9.210;2023-04-12T07:32:06;5.57;;;2.20;;
6414;SDS011;3240;48.790;9.210;2023-04-12T07:34:34;2.60;;;2.20;;
6414;SDS011;3240;48.790;9.210;2023-04-12T07:37:02;4.62;;;2.40;;
6414;SDS011;3240;48.790;9.210;2023-04-12T07:39:30;3.00;;;2.07;;
6414;SDS011;3240;48.790;9.210;2023-04-12T07:41:58;5.17;;;2.43;;
6414;SDS011;3240;48.790;9.210;2023-04-12T07:44:26;3.13;;;2.20;;
6414;SDS011;3240;48.790;9.210;2023-04-12T07:46:54;3.80;;;2.00;;
6414;SDS011;3240;48.790;9.210;2023-04-12T07:49:22;6.10;;;2.30;;
6414;SDS011;3240;48.790;9.210;2023-04-12T07:51:50;3.23;;;2.17;;
6414;SDS011;3240;48.790;9.210;2023-04-12T07:54:18;3.20;;;1.87;;
6414;SDS011;3240;48.790;9.210;2023-04-12T07:59:20;2.33;;;1.60;;
6414;SDS011;3240;48.790;9.210;2023-04-12T08:01:48;3.20;;;1.60;;
6414;SDS011;3240;48.790;9.210;2023-04-12T08:04:16;3.43;;;1.83;;
6414;SDS011;3240;48.790;9.210;2023-04-12T08:06:44;2.97;;;2.20;;
6414;SDS011;3240;48.790;9.210;2023-04-12T08:09:12;2.70;;;2.20;;
6414;SDS011;3240;48.790;9.210;2023-04-12T08:11:40;5.03;;;2.00;;
6414;SDS011;3240;48.790;9.210;2023-04-12T08:14:08;4.10;;;2.00;;
6414;SDS011;3240;48.790;9.210;2023-04-12T08:16:36;3.50;;;2.00;;
6414;SDS011;3240;48.790;9.210;2023-04-12T08:19:04;5.53;;;2.60;;
6414;SDS011;3240;48.790;9.210;2023-04-12T08:21:32;8.07;;;2.20;;
6414;SDS011;3240;48.790;9.210;2023-04-12T08:24:00;5.07;;;2.33;;
6414;SDS011;3240;48.790;9.210;2023-04-12T08:26:28;2.57;;;1.97;;
6414;SDS011;3240;48.790;9.210;2023-04-12T08:28:56;2.73;;;1.83;;
6414;SDS011;3240;48.790;9.210;2023-04-12T08:31:24;5.50;;;2.17;;
6414;SDS011;3240;48.790;9.210;2023-04-12T08:33:52;2.90;;;1.87;;
6414;SDS011;3240;48.790;9.210;2023-04-12T08:36:20;2.80;;;1.87;;
6414;SDS011;3240;48.790;9.210;2023-04-12T08:38:48;2.83;;;1.77;;
6414;SDS011;3240;48.790;9.210;2023-04-12T08:41:17;2.23;;;1.53;;
6414;SDS011;3240;48.790;9.210;2023-04-12T08:43:44;1.83;;;1.70;;
6414;SDS011;3240;48.790;9.210;2023-04-12T08:46:13;3.10;;;1.67;;
6414;SDS011;3240;48.790;9.210;2023-04-12T08:48:41;2.53;;;1.43;;
6414;SDS011;3240;48.790;9.210;2023-04-12T08:51:10;5.20;;;1.90;;
6414;SDS011;3240;48.790;9.210;2023-04-12T08:53:37;2.80;;;1.60;;
6414;SDS011;3240;48.790;9.210;2023-04-12T08:56:05;2.67;;;1.17;;
6414;SDS011;3240;48.790;9.210;2023-04-12T08:58:33;2.00;;;1.23;;
6414;SDS011;3240;48.790;9.210;2023-04-12T09:01:01;2.47;;;1.30;;
6414;SDS011;3240;48.790;9.210;2023-04-12T09:03:29;2.60;;;1.57;;
6414;SDS011;3240;48.790;9.210;2023-04-12T09:05:57;1.80;;;1.37;;
6414;SDS011;3240;48.790;9.210;2023-04-12T09:08:25;48.13;;;4.73;;
6414;SDS011;3240;48.790;9.210;2023-04-12T09:10:53;4.23;;;1.80;;
6414;SDS011;3240;48.790;9.210;2023-04-12T09:15:55;5.00;;;1.97;;
6414;SDS011;3240;48.790;9.210;2023-04-12T09:18:23;5.27;;;1.67;;
6414;SDS011;3240;48.790;9.210;2023-04-12T09:20:51;2.43;;;1.43;;
6414;SDS011;3240;48.790;9.210;2023-04-12T09:23:21;1.83;;;1.23;;
6414;SDS011;3240;48.790;9.210;2023-04-12T09:25:47;2.53;;;1.20;;
6414;SDS011;3240;48.790;9.210;2023-04-12T09:28:17;2.27;;;1.70;;
6414;SDS011;3240;48.790;9.210;2023-04-12T09:30:44;2.60;;;1.80;;
6414;SDS011;3240;48.790;9.210;2023-04-12T09:33:12;2.60;;;1.70;;
6414;SDS011;3240;48.790;9.210;2023-04-12T09:35:40;2.27;;;1.60;;
6414;SDS011;3240;48.790;9.210;2023-04-12T09:38:08;2.77;;;1.80;;
6414;SDS011;3240;48.790;9.210;2023-04-12T09:40:36;3.60;;;1.77;;
6414;SDS011;3240;48.790;9.210;2023-04-12T09:43:04;5.60;;;1.90;;
6414;SDS011;3240;48.790;9.210;2023-04-12T09:45:33;13.03;;;2.30;;
6414;SDS011;3240;48.790;9.210;2023-04-12T09:48:01;9.40;;;2.27;;
6414;SDS011;3240;48.790;9.210;2023-04-12T09:50:29;3.10;;;1.63;;
6414;SDS011;3240;48.790;9.210;2023-04-12T09:52:57;3.90;;;1.53;;
6414;SDS011;3240;48.790;9.210;2023-04-12T09:55:26;3.87;;;1.60;;
6414;SDS011;3240;48.790;9.210;2023-04-12T09:57:53;3.87;;;1.70;;
6414;SDS011;3240;48.790;9.210;2023-04-12T10:00:22;4.80;;;1.90;;
6414;SDS011;3240;48.790;9.210;2023-04-12T10:02:50;6.00;;;1.80;;
6414;SDS011;3240;48.790;9.210;2023-04-12T10:05:18;4.87;;;1.63;;
6414;SDS011;3240;48.790;9.210;2023-04-12T10:07:45;3.80;;;1.93;;
6414;SDS011;3240;48.790;9.210;2023-04-12T10:10:14;2.63;;;1.57;;
6414;SDS011;3240;48.790;9.210;2023-04-12T10:12:42;4.63;;;1.60;;
6414;SDS011;3240;48.790;9.210;2023-04-12T10:15:09;4.27;;;1.70;;
6414;SDS011;3240;48.790;9.210;2023-04-12T10:17:43;3.80;;;1.93;;
6414;SDS011;3240;48.790;9.210;2023-04-12T10:20:12;2.20;;;1.70;;
6414;SDS011;3240;48.790;9.210;2023-04-12T10:22:41;3.03;;;1.60;;
6414;SDS011;3240;48.790;9.210;2023-04-12T10:25:11;3.10;;;1.70;;
6414;SDS011;3240;48.790;9.210;2023-04-12T10:27:39;6.90;;;1.90;;
6414;SDS011;3240;48.790;9.210;2023-04-12T10:30:27;2.07;;;1.70;;
6414;SDS011;3240;48.790;9.210;2023-04-12T10:35:27;5.27;;;2.20;;
6414;SDS011;3240;48.790;9.210;2023-04-12T10:37:59;3.23;;;1.57;;
6414;SDS011;3240;48.790;9.210;2023-04-12T10:40:27;2.90;;;1.63;;
6414;SDS011;3240;48.790;9.210;2023-04-12T10:48:05;3.70;;;1.80;;
6414;SDS011;3240;48.790;9.210;2023-04-12T10:50:34;3.30;;;1.90;;
6414;SDS011;3240;48.790;9.210;2023-04-12T10:55:36;4.43;;;1.60;;
6414;SDS011;3240;48.790;9.210;2023-04-12T10:58:04;5.90;;;1.63;;
6414;SDS011;3240;48.790;9.210;2023-04-12T11:03:08;3.30;;;1.63;;
6414;SDS011;3240;48.790;9.210;2023-04-12T11:08:10;4.10;;;1.13;;
6414;SDS011;3240;48.790;9.210;2023-04-12T11:10:38;2.90;;;1.13;;
6414;SDS011;3240;48.790;9.210;2023-04-12T11:13:07;3.40;;;1.47;;
6414;SDS011;3240;48.790;9.210;2023-04-12T11:15:37;3.60;;;1.67;;
6414;SDS011;3240;48.790;9.210;2023-04-12T11:18:03;3.10;;;1.20;;
6414;SDS011;3240;48.790;9.210;2023-04-12T11:20:32;5.25;;;1.30;;
6414;SDS011;3240;48.790;9.210;2023-04-12T11:23:00;1.80;;;1.37;;
6414;SDS011;3240;48.790;9.210;2023-04-12T11:25:28;5.17;;;1.20;;
6414;SDS011;3240;48.790;9.210;2023-04-12T11:27:57;3.07;;;1.10;;
6414;SDS011;3240;48.790;9.210;2023-04-12T11:30:25;3.30;;;1.97;;
6414;SDS011;3240;48.790;9.210;2023-04-12T11:32:53;4.43;;;1.37;;
6414;SDS011;3240;48.790;9.210;2023-04-12T11:35:22;3.90;;;1.33;;
6414;SDS011;3240;48.790;9.210;2023-04-12T11:37:50;1.20;;;0.87;;
6414;SDS011;3240;48.790;9.210;2023-04-12T11:40:20;2.13;;;1.23;;
6414;SDS011;3240;48.790;9.210;2023-04-12T11:42:47;2.20;;;1.10;;
6414;SDS011;3240;48.790;9.210;2023-04-12T11:45:18;1.07;;;0.87;;
6414;SDS011;3240;48.790;9.210;2023-04-12T11:47:46;2.40;;;0.80;;
6414;SDS011;3240;48.790;9.210;2023-04-12T11:50:26;1.00;;;0.80;;
6414;SDS011;3240;48.790;9.210;2023-04-12T11:52:43;2.83;;;0.80;;
6414;SDS011;3240;48.790;9.210;2023-04-12T11:55:11;1.87;;;1.33;;
6414;SDS011;3240;48.790;9.210;2023-04-12T11:57:39;2.60;;;1.13;;
6414;SDS011;3240;48.790;9.210;2023-04-12T12:00:07;3.53;;;1.53;;
6414;SDS011;3240;48.790;9.210;2023-04-12T12:02:36;1.50;;;1.10;;
6414;SDS011;3240;48.790;9.210;2023-04-12T12:05:04;1.90;;;1.10;;
6414;SDS011;3240;48.790;9.210;2023-04-12T12:07:32;1.37;;;0.97;;
6414;SDS011;3240;48.790;9.210;2023-04-12T12:10:01;2.40;;;1.10;;
6414;SDS011;3240;48.790;9.210;2023-04-12T12:12:29;3.27;;;1.33;;
6414;SDS011;3240;48.790;9.210;2023-04-12T12:14:58;1.17;;;0.90;;
6414;SDS011;3240;48.790;9.210;2023-04-12T12:17:26;1.43;;;1.00;;
6414;SDS011;3240;48.790;9.210;2023-04-12T12:19:55;2.13;;;1.00;;
6414;SDS011;3240;48.790;9.210;2023-04-12T12:22:22;3.50;;;1.63;;
6414;SDS011;3240;48.790;9.210;2023-04-12T12:24:53;2.43;;;0.90;;
6414;SDS011;3240;48.790;9.210;2023-04-12T12:27:23;1.67;;;0.83;;
6414;SDS011;3240;48.790;9.210;2023-04-12T12:29:51;2.70;;;1.30;;
6414;SDS011;3240;48.790;9.210;2023-04-12T12:32:19;2.50;;;0.90;;
6414;SDS011;3240;48.790;9.210;2023-04-12T12:34:50;1.23;;;0.97;;
6414;SDS011;3240;48.790;9.210;2023-04-12T12:37:21;2.97;;;1.13;;
6414;SDS011;3240;48.790;9.210;2023-04-12T12:42:22;1.77;;;0.97;;
6414;SDS011;3240;48.790;9.210;2023-04-12T12:44:50;1.50;;;0.80;;
6414;SDS011;3240;48.790;9.210;2023-04-12T12:47:19;2.10;;;0.80;;
6414;SDS011;3240;48.790;9.210;2023-04-12T12:49:47;2.03;;;0.90;;
6414;SDS011;3240;48.790;9.210;2023-04-12T12:52:15;2.50;;;0.97;;
6414;SDS011;3240;48.790;9.210;2023-04-12T12:54:44;1.30;;;0.93;;
6414;SDS011;3240;48.790;9.210;2023-04-12T12:57:12;3.20;;;0.97;;
6414;SDS011;3240;48.790;9.210;2023-04-12T12:59:40;2.10;;;0.90;;
6414;SDS011;3240;48.790;9.210;2023-04-12T13:02:09;1.23;;;0.90;;
6414;SDS011;3240;48.790;9.210;2023-04-12T13:04:37;2.00;;;0.80;;
6414;SDS011;3240;48.790;9.210;2023-04-12T13:07:05;1.00;;;0.80;;
6414;SDS011;3240;48.790;9.210;2023-04-12T13:09:34;1.23;;;1.00;;
6414;SDS011;3240;48.790;9.210;2023-04-12T13:12:02;4.30;;;1.00;;
6414;SDS011;3240;48.790;9.210;2023-04-12T13:14:30;3.03;;;1.00;;
6414;SDS011;3240;48.790;9.210;2023-04-12T13:16:59;1.97;;;0.90;;
6414;SDS011;3240;48.790;9.210;2023-04-12T13:19:27;2.03;;;0.93;;
6414;SDS011;3240;48.790;9.210;2023-04-12T13:21:55;1.13;;;0.80;;
6414;SDS011;3240;48.790;9.210;2023-04-12T13:24:24;2.43;;;0.70;;
6414;SDS011;3240;48.790;9.210;2023-04-12T13:26:52;2.00;;;1.07;;
6414;SDS011;3240;48.790;9.210;2023-04-12T13:29:20;2.40;;;0.83;;
6414;SDS011;3240;48.790;9.210;2023-04-12T13:31:49;1.40;;;0.80;;
6414;SDS011;3240;48.790;9.210;2023-04-12T13:34:17;2.20;;;1.00;;
6414;SDS011;3240;48.790;9.210;2023-04-12T13:36:45;1.30;;;0.80;;
6414;SDS011;3240;48.790;9.210;2023-04-12T13:39:14;2.00;;;0.90;;
6414;SDS011;3240;48.790;9.210;2023-04-12T13:41:42;1.17;;;0.70;;
6414;SDS011;3240;48.790;9.210;2023-04-12T13:44:10;2.27;;;1.00;;
6414;SDS011;3240;48.790;9.210;2023-04-12T13:46:38;2.10;;;1.00;;
6414;SDS011;3240;48.790;9.210;2023-04-12T13:49:07;2.10;;;0.80;;
6414;SDS011;3240;48.790;9.210;2023-04-12T13:51:35;0.63;;;0.63;;
6414;SDS011;3240;48.790;9.210;2023-04-12T13:54:04;1.60;;;0.93;;
6414;SDS011;3240;48.790;9.210;2023-04-12T13:56:32;2.65;;;1.10;;
6414;SDS011;3240;48.790;9.210;2023-04-12T13:59:00;0.90;;;0.70;;
6414;SDS011;3240;48.790;9.210;2023-04-12T14:01:29;7.60;;;0.83;;
6414;SDS011;3240;48.790;9.210;2023-04-12T14:03:57;1.67;;;1.00;;
6414;SDS011;3240;48.790;9.210;2023-04-12T14:06:25;4.73;;;1.10;;
6414;SDS011;3240;48.790;9.210;2023-04-12T14:08:53;2.20;;;0.90;;
6414;SDS011;3240;48.790;9.210;2023-04-12T14:11:23;3.00;;;0.97;;
6414;SDS011;3240;48.790;9.210;2023-04-12T14:13:52;1.33;;;0.63;;
6414;SDS011;3240;48.790;9.210;2023-04-12T14:16:20;1.70;;;1.00;;
6414;SDS011;3240;48.790;9.210;2023-04-12T14:18:48;2.40;;;0.80;;
6414;SDS011;3240;48.790;9.210;2023-04-12T14:21:17;1.80;;;0.87;;
6414;SDS011;3240;48.790;9.210;2023-04-12T14:23:45;1.20;;;1.00;;
6414;SDS011;3240;48.790;9.210;2023-04-12T14:26:13;1.00;;;0.90;;
6414;SDS011;3240;48.790;9.210;2023-04-12T14:28:43;1.83;;;0.70;;
6414;SDS011;3240;48.790;9.210;2023-04-12T14:31:11;1.37;;;0.70;;
6414;SDS011;3240;48.790;9.210;2023-04-12T14:33:39;1.80;;;0.80;;
6414;SDS011;3240;48.790;9.210;2023-04-12T14:36:08;1.10;;;1.00;;
6414;SDS011;3240;48.790;9.210;2023-04-12T14:38:36;3.07;;;0.70;;
6414;SDS011;3240;48.790;9.210;2023-04-12T14:41:05;1.23;;;0.80;;
6414;SDS011;3240;48.790;9.210;2023-04-12T14:43:33;2.30;;;0.80;;
6414;SDS011;3240;48.790;9.210;2023-04-12T14:46:02;1.50;;;0.70;;
6414;SDS011;3240;48.790;9.210;2023-04-12T14:48:30;1.40;;;0.80;;
6414;SDS011;3240;48.790;9.210;2023-04-12T14:50:58;3.57;;;0.70;;
6414;SDS011;3240;48.790;9.210;2023-04-12T14:53:27;2.30;;;0.70;;
6414;SDS011;3240;48.790;9.210;2023-04-12T14:55:55;2.07;;;0.70;;
6414;SDS011;3240;48.790;9.210;2023-04-12T14:58:23;1.10;;;0.67;;
6414;SDS011;3240;48.790;9.210;2023-04-12T15:00:52;3.03;;;0.90;;
6414;SDS011;3240;48.790;9.210;2023-04-12T15:03:20;1.77;;;0.80;;
6414;SDS011;3240;48.790;9.210;2023-04-12T15:05:48;1.17;;;0.80;;
6414;SDS011;3240;48.790;9.210;2023-04-12T15:08:17;1.93;;;1.00;;
6414;SDS011;3240;48.790;9.210;2023-04-12T15:10:45;3.13;;;0.70;;
6414;SDS011;3240;48.790;9.210;2023-04-12T15:13:14;2.67;;;0.60;;
6414;SDS011;3240;48.790;9.210;2023-04-12T15:15:42;1.40;;;0.80;;
6414;SDS011;3240;48.790;9.210;2023-04-12T15:18:10;0.90;;;0.80;;
6414;SDS011;3240;48.790;9.210;2023-04-12T15:20:38;2.50;;;0.40;;
6414;SDS011;3240;48.790;9.210;2023-04-12T15:23:07;0.83;;;0.60;;
6414;SDS011;3240;48.790;9.210;2023-04-12T15:25:35;6.83;;;0.70;;
6414;SDS011;3240;48.790;9.210;2023-04-12T15:28:04;0.80;;;0.50;;
6414;SDS011;3240;48.790;9.210;2023-04-12T15:30:32;6.93;;;1.00;;
6414;SDS011;3240;48.790;9.210;2023-04-12T15:33:00;1.70;;;0.50;;
6414;SDS011;3240;48.790;9.210;2023-04-12T15:35:28;1.77;;;0.80;;
6414;SDS011;3240;48.790;9.210;2023-04-12T15:37:57;2.00;;;0.50;;
6414;SDS011;3240;48.790;9.210;2023-04-12T15:40:25;0.57;;;0.43;;
6414;SDS011;3240;48.790;9.210;2023-04-12T15:42:53;1.63;;;0.50;;
6414;SDS011;3240;48.790;9.210;2023-04-12T15:45:22;0.70;;;0.50;;
6414;SDS011;3240;48.790;9.210;2023-04-12T15:47:50;0.80;;;0.50;;